sensor_id;sensor_type;location;lat;lon;timestamp;P1;P2;P0
56495;PMS5003;42804;55.762;38.084;2024-01-10T00:01:17;9.75;8.50;4.00
56495;PMS5003;42804;55.762;38.084;2024-01-10T00:03:46;7.00;6.25;1.00
56495;PMS5003;42804;55.762;38.084;2024-01-10T00:06:14;9.75;9.00;5.00
56495;PMS5003;42804;55.762;38.084;2024-01-10T00:08:44;10.25;7.00;3.75
56495;PMS5003;42804;55.762;38.084;2024-01-10T00:11:12;10.00;9.00;6.00
56495;PMS5003;42804;55.762;38.084;2024-01-10T00:13:40;3.25;2.50;1.00
56495;PMS5003;42804;55.762;38.084;2024-01-10T00:16:11;11.75;9.75;6.25
56495;PMS5003;42804;55.762;38.084;2024-01-10T00:18:40;8.50;8.00;4.00
56495;PMS5003;42804;55.762;38.084;2024-01-10T00:21:08;4.75;3.25;1.00
56495;PMS5003;42804;55.762;38.084;2024-01-10T00:23:36;11.00;10.00;5.50
56495;PMS5003;42804;55.762;38.084;2024-01-10T00:26:06;9.00;7.00;3.50
56495;PMS5003;42804;55.762;38.084;2024-01-10T00:28:34;6.00;4.00;1.00
56495;PMS5003;42804;55.762;38.084;2024-01-10T00:31:03;9.00;7.00;4.00
56495;PMS5003;42804;55.762;38.084;2024-01-10T00:33:31;8.00;6.50;4.00
56495;PMS5003;42804;55.762;38.084;2024-01-10T00:36:00;7.50;6.00;3.00
56495;PMS5003;42804;55.762;38.084;2024-01-10T00:38:28;6.75;6.25;4.00
56495;PMS5003;42804;55.762;38.084;2024-01-10T00:40:57;5.00;5.00;3.00
56495;PMS5003;42804;55.762;38.084;2024-01-10T00:43:26;6.25;6.00;3.00
56495;PMS5003;42804;55.762;38.084;2024-01-10T00:45:55;6.00;4.00;3.00
56495;PMS5003;42804;55.762;38.084;2024-01-10T00:48:23;4.50;4.00;1.00
56495;PMS5003;42804;55.762;38.084;2024-01-10T00:50:51;2.50;1.00;1.00
56495;PMS5003;42804;55.762;38.084;2024-01-10T00:53:20;5.00;4.00;2.00
56495;PMS5003;42804;55.762;38.084;2024-01-10T00:55:48;1.50;1.00;0.00
56495;PMS5003;42804;55.762;38.084;2024-01-10T00:58:16;4.00;3.00;1.00
56495;PMS5003;42804;55.762;38.084;2024-01-10T01:00:46;3.00;1.00;0.00
56495;PMS5003;42804;55.762;38.084;2024-01-10T01:03:15;6.00;3.00;1.00
56495;PMS5003;42804;55.762;38.084;2024-01-10T01:05:43;3.25;3.00;0.75
56495;PMS5003;42804;55.762;38.084;2024-01-10T01:08:12;3.00;1.00;1.00
56495;PMS5003;42804;55.762;38.084;2024-01-10T01:10:40;3.75;3.75;1.00
56495;PMS5003;42804;55.762;38.084;2024-01-10T01:13:08;3.00;3.00;1.00
56495;PMS5003;42804;55.762;38.084;2024-01-10T01:15:37;3.00;0.50;0.00
56495;PMS5003;42804;55.762;38.084;2024-01-10T01:18:07;1.00;0.00;0.00
56495;PMS5003;42804;55.762;38.084;2024-01-10T01:20:37;3.50;3.00;2.00
56495;PMS5003;42804;55.762;38.084;2024-01-10T01:23:05;2.00;0.00;0.00
56495;PMS5003;42804;55.762;38.084;2024-01-10T01:25:33;0.50;0.50;0.00
56495;PMS5003;42804;55.762;38.084;2024-01-10T01:28:01;0.50;0.00;0.00
56495;PMS5003;42804;55.762;38.084;2024-01-10T01:30:30;1.00;0.00;0.00
56495;PMS5003;42804;55.762;38.084;2024-01-10T01:32:58;1.50;1.00;0.00
56495;PMS5003;42804;55.762;38.084;2024-01-10T01:35:28;0.00;0.00;0.00
56495;PMS5003;42804;55.762;38.084;2024-01-10T01:37:57;0.00;0.00;0.00
56495;PMS5003;42804;55.762;38.084;2024-01-10T01:40:26;0.00;0.00;0.00
56495;PMS5003;42804;55.762;38.084;2024-01-10T01:42:54;0.00;0.00;0.00
56495;PMS5003;42804;55.762;38.084;2024-01-10T01:45:22;0.00;0.00;0.00
56495;PMS5003;42804;55.762;38.084;2024-01-10T01:47:51;0.00;0.00;0.00
56495;PMS5003;42804;55.762;38.084;2024-01-10T01:50:19;1.00;0.00;0.00
56495;PMS5003;42804;55.762;38.084;2024-01-10T01:52:49;0.00;0.00;0.00
56495;PMS5003;42804;55.762;38.084;2024-01-10T01:55:18;0.00;0.00;0.00
56495;PMS5003;42804;55.762;38.084;2024-01-10T01:57:46;0.00;0.00;0.00
56495;PMS5003;42804;55.762;38.084;2024-01-10T02:00:15;0.00;0.00;0.00
56495;PMS5003;42804;55.762;38.084;2024-01-10T02:02:43;0.00;0.00;0.00
56495;PMS5003;42804;55.762;38.084;2024-01-10T02:05:11;0.50;0.00;0.00
56495;PMS5003;42804;55.762;38.084;2024-01-10T02:07:42;0.00;0.00;0.00
56495;PMS5003;42804;55.762;38.084;2024-01-10T02:10:12;0.00;0.00;0.00
56495;PMS5003;42804;55.762;38.084;2024-01-10T02:12:40;4.25;3.50;1.50
56495;PMS5003;42804;55.762;38.084;2024-01-10T02:15:09;7.50;5.50;3.00
56495;PMS5003;42804;55.762;38.084;2024-01-10T02:17:37;7.25;5.00;2.50
56495;PMS5003;42804;55.762;38.084;2024-01-10T02:20:09;7.40;6.40;3.60
56495;PMS5003;42804;55.762;38.084;2024-01-10T02:22:38;6.40;6.40;4.20
56495;PMS5003;42804;55.762;38.084;2024-01-10T02:25:08;14.20;12.80;7.00
56495;PMS5003;42804;55.762;38.084;2024-01-10T02:27:37;10.80;9.20;4.40
56495;PMS5003;42804;55.762;38.084;2024-01-10T02:30:06;5.60;3.20;1.00
56495;PMS5003;42804;55.762;38.084;2024-01-10T02:32:35;5.60;5.60;1.40
56495;PMS5003;42804;55.762;38.084;2024-01-10T02:35:04;12.20;9.00;6.00
56495;PMS5003;42804;55.762;38.084;2024-01-10T02:37:32;11.80;9.80;7.20
56495;PMS5003;42804;55.762;38.084;2024-01-10T02:40:00;5.20;4.00;1.80
56495;PMS5003;42804;55.762;38.084;2024-01-10T02:42:32;13.00;10.00;6.00
56495;PMS5003;42804;55.762;38.084;2024-01-10T02:45:00;7.00;3.40;0.80
56495;PMS5003;42804;55.762;38.084;2024-01-10T02:47:30;10.20;7.00;3.00
56495;PMS5003;42804;55.762;38.084;2024-01-10T02:49:59;6.80;6.80;3.00
56495;PMS5003;42804;55.762;38.084;2024-01-10T02:52:28;10.40;9.20;4.40
56495;PMS5003;42804;55.762;38.084;2024-01-10T02:54:57;14.60;12.20;6.20
56495;PMS5003;42804;55.762;38.084;2024-01-10T02:57:25;6.40;3.80;1.00
56495;PMS5003;42804;55.762;38.084;2024-01-10T02:59:55;10.80;7.00;3.20
56495;PMS5003;42804;55.762;38.084;2024-01-10T03:02:23;9.80;9.60;6.00
56495;PMS5003;42804;55.762;38.084;2024-01-10T03:04:51;7.60;4.00;3.80
56495;PMS5003;42804;55.762;38.084;2024-01-10T03:07:20;10.40;6.40;3.40
56495;PMS5003;42804;55.762;38.084;2024-01-10T03:09:48;14.20;9.80;4.00
56495;PMS5003;42804;55.762;38.084;2024-01-10T03:12:16;6.00;5.60;1.80
56495;PMS5003;42804;55.762;38.084;2024-01-10T03:14:45;13.00;10.00;7.80
56495;PMS5003;42804;55.762;38.084;2024-01-10T03:17:15;11.80;11.00;6.20
56495;PMS5003;42804;55.762;38.084;2024-01-10T03:19:43;10.20;6.20;1.40
56495;PMS5003;42804;55.762;38.084;2024-01-10T03:22:12;13.40;12.60;6.40
56495;PMS5003;42804;55.762;38.084;2024-01-10T03:24:40;14.00;12.60;7.00
56495;PMS5003;42804;55.762;38.084;2024-01-10T03:27:08;25.00;15.40;8.20
56495;PMS5003;42804;55.762;38.084;2024-01-10T03:29:36;10.40;9.00;4.40
56495;PMS5003;42804;55.762;38.084;2024-01-10T03:32:05;10.00;6.80;6.00
56495;PMS5003;42804;55.762;38.084;2024-01-10T03:34:35;12.60;11.20;6.40
56495;PMS5003;42804;55.762;38.084;2024-01-10T03:37:03;10.80;10.00;5.60
56495;PMS5003;42804;55.762;38.084;2024-01-10T03:39:32;15.80;12.40;6.40
56495;PMS5003;42804;55.762;38.084;2024-01-10T03:42:00;9.40;8.60;3.00
56495;PMS5003;42804;55.762;38.084;2024-01-10T03:44:29;19.20;12.40;6.60
56495;PMS5003;42804;55.762;38.084;2024-01-10T03:46:57;9.40;7.40;4.00
56495;PMS5003;42804;55.762;38.084;2024-01-10T03:49:25;15.00;9.20;5.20
56495;PMS5003;42804;55.762;38.084;2024-01-10T03:51:55;12.60;9.60;4.00
56495;PMS5003;42804;55.762;38.084;2024-01-10T03:54:24;14.20;11.60;6.80
56495;PMS5003;42804;55.762;38.084;2024-01-10T03:56:52;9.00;7.20;4.00
56495;PMS5003;42804;55.762;38.084;2024-01-10T03:59:21;11.40;11.40;6.00
56495;PMS5003;42804;55.762;38.084;2024-01-10T04:01:49;10.00;9.00;4.40
56495;PMS5003;42804;55.762;38.084;2024-01-10T04:04:18;12.20;9.20;4.00
56495;PMS5003;42804;55.762;38.084;2024-01-10T04:06:46;4.00;3.20;0.00
56495;PMS5003;42804;55.762;38.084;2024-01-10T04:09:16;7.00;6.00;2.80
56495;PMS5003;42804;55.762;38.084;2024-01-10T04:11:44;8.40;7.00;4.00
56495;PMS5003;42804;55.762;38.084;2024-01-10T04:14:13;12.40;7.80;4.80
56495;PMS5003;42804;55.762;38.084;2024-01-10T04:16:42;2.20;2.20;0.80
56495;PMS5003;42804;55.762;38.084;2024-01-10T04:19:13;6.40;5.20;3.00
56495;PMS5003;42804;55.762;38.084;2024-01-10T04:21:44;8.60;6.40;3.60
56495;PMS5003;42804;55.762;38.084;2024-01-10T04:24:12;3.60;2.60;0.40
56495;PMS5003;42804;55.762;38.084;2024-01-10T04:26:41;9.80;6.80;3.00
56495;PMS5003;42804;55.762;38.084;2024-01-10T04:29:10;11.20;9.80;6.00
56495;PMS5003;42804;55.762;38.084;2024-01-10T04:31:38;6.40;4.20;2.20
56495;PMS5003;42804;55.762;38.084;2024-01-10T04:34:09;6.40;6.40;4.00
56495;PMS5003;42804;55.762;38.084;2024-01-10T04:36:37;10.80;9.00;4.00
56495;PMS5003;42804;55.762;38.084;2024-01-10T04:39:05;8.60;8.60;4.40
56495;PMS5003;42804;55.762;38.084;2024-01-10T04:41:34;9.20;8.60;4.80
56495;PMS5003;42804;55.762;38.084;2024-01-10T04:44:04;4.40;4.20;2.60
56495;PMS5003;42804;55.762;38.084;2024-01-10T04:46:32;5.40;4.00;0.40
56495;PMS5003;42804;55.762;38.084;2024-01-10T04:49:01;5.20;3.00;0.00
56495;PMS5003;42804;55.762;38.084;2024-01-10T04:51:30;6.60;6.00;3.20
56495;PMS5003;42804;55.762;38.084;2024-01-10T04:53:58;11.60;7.40;3.80
56495;PMS5003;42804;55.762;38.084;2024-01-10T04:56:26;7.00;4.40;1.80
56495;PMS5003;42804;55.762;38.084;2024-01-10T04:58:57;9.00;7.00;3.00
56495;PMS5003;42804;55.762;38.084;2024-01-10T05:01:27;6.60;5.20;3.00
56495;PMS5003;42804;55.762;38.084;2024-01-10T05:03:56;4.40;3.80;2.20
56495;PMS5003;42804;55.762;38.084;2024-01-10T05:06:24;9.40;7.00;4.00
56495;PMS5003;42804;55.762;38.084;2024-01-10T05:08:55;7.60;6.60;3.80
56495;PMS5003;42804;55.762;38.084;2024-01-10T05:11:25;11.60;10.00;4.00
56495;PMS5003;42804;55.762;38.084;2024-01-10T05:13:53;7.00;6.20;3.00
56495;PMS5003;42804;55.762;38.084;2024-01-10T05:16:22;6.00;6.00;3.40
56495;PMS5003;42804;55.762;38.084;2024-01-10T05:18:52;7.40;7.00;4.00
56495;PMS5003;42804;55.762;38.084;2024-01-10T05:21:20;7.00;7.00;5.00
56495;PMS5003;42804;55.762;38.084;2024-01-10T05:23:49;5.60;3.80;3.40
56495;PMS5003;42804;55.762;38.084;2024-01-10T05:26:17;6.80;6.40;2.60
56495;PMS5003;42804;55.762;38.084;2024-01-10T05:28:46;7.00;7.00;3.00
56495;PMS5003;42804;55.762;38.084;2024-01-10T05:31:14;5.20;4.00;3.00
56495;PMS5003;42804;55.762;38.084;2024-01-10T05:33:42;7.20;3.80;0.00
56495;PMS5003;42804;55.762;38.084;2024-01-10T05:36:13;6.20;6.20;3.40
56495;PMS5003;42804;55.762;38.084;2024-01-10T05:38:42;9.40;8.60;6.00
56495;PMS5003;42804;55.762;38.084;2024-01-10T05:41:10;9.00;4.40;3.00
56495;PMS5003;42804;55.762;38.084;2024-01-10T05:43:38;3.60;3.60;3.00
56495;PMS5003;42804;55.762;38.084;2024-01-10T05:46:07;11.20;9.60;6.80
56495;PMS5003;42804;55.762;38.084;2024-01-10T05:48:36;8.00;7.00;3.60
56495;PMS5003;42804;55.762;38.084;2024-01-10T05:51:05;10.60;7.80;4.00
56495;PMS5003;42804;55.762;38.084;2024-01-10T05:53:34;6.00;3.80;3.00
56495;PMS5003;42804;55.762;38.084;2024-01-10T05:56:05;7.80;7.00;4.40
56495;PMS5003;42804;55.762;38.084;2024-01-10T05:58:33;6.80;6.80;3.80
56495;PMS5003;42804;55.762;38.084;2024-01-10T06:01:02;9.00;7.00;3.40
56495;PMS5003;42804;55.762;38.084;2024-01-10T06:03:31;6.00;4.00;3.00
56495;PMS5003;42804;55.762;38.084;2024-01-10T06:06:00;10.00;9.40;3.60
56495;PMS5003;42804;55.762;38.084;2024-01-10T06:08:30;12.20;6.60;4.00
56495;PMS5003;42804;55.762;38.084;2024-01-10T06:10:59;11.20;9.40;6.00
56495;PMS5003;42804;55.762;38.084;2024-01-10T06:13:30;7.20;7.20;3.00
56495;PMS5003;42804;55.762;38.084;2024-01-10T06:16:17;9.20;6.40;2.20
56495;PMS5003;42804;55.762;38.084;2024-01-10T06:18:48;9.60;7.00;3.60
56495;PMS5003;42804;55.762;38.084;2024-01-10T06:21:17;9.20;9.00;4.00
56495;PMS5003;42804;55.762;38.084;2024-01-10T06:23:45;5.60;3.60;1.40
56495;PMS5003;42804;55.762;38.084;2024-01-10T06:26:15;6.00;5.60;3.20
56495;PMS5003;42804;55.762;38.084;2024-01-10T06:28:43;6.80;5.60;2.60
56495;PMS5003;42804;55.762;38.084;2024-01-10T06:31:11;3.80;3.40;1.00
56495;PMS5003;42804;55.762;38.084;2024-01-10T06:33:40;3.20;1.40;0.20
56495;PMS5003;42804;55.762;38.084;2024-01-10T06:36:08;6.80;6.80;3.00
56495;PMS5003;42804;55.762;38.084;2024-01-10T06:38:38;2.60;0.60;0.40
56495;PMS5003;42804;55.762;38.084;2024-01-10T06:41:07;6.60;5.20;2.60
56495;PMS5003;42804;55.762;38.084;2024-01-10T06:43:38;7.60;6.00;1.80
56495;PMS5003;42804;55.762;38.084;2024-01-10T06:46:11;3.20;3.20;1.40
56495;PMS5003;42804;55.762;38.084;2024-01-10T06:48:40;13.40;9.00;3.00
56495;PMS5003;42804;55.762;38.084;2024-01-10T06:51:12;7.20;4.80;3.00
56495;PMS5003;42804;55.762;38.084;2024-01-10T06:53:40;4.40;4.00;1.40
56495;PMS5003;42804;55.762;38.084;2024-01-10T06:56:09;3.40;3.00;1.00
56495;PMS5003;42804;55.762;38.084;2024-01-10T06:58:39;4.00;1.00;1.00
56495;PMS5003;42804;55.762;38.084;2024-01-10T07:01:11;5.40;4.80;1.00
56495;PMS5003;42804;55.762;38.084;2024-01-10T07:03:41;3.80;3.60;1.00
56495;PMS5003;42804;55.762;38.084;2024-01-10T07:06:11;5.20;4.00;1.80
56495;PMS5003;42804;55.762;38.084;2024-01-10T07:08:42;7.40;6.00;1.00
56495;PMS5003;42804;55.762;38.084;2024-01-10T07:11:12;4.60;3.40;2.60
56495;PMS5003;42804;55.762;38.084;2024-01-10T07:13:42;6.00;4.60;1.00
56495;PMS5003;42804;55.762;38.084;2024-01-10T07:16:11;13.40;8.80;3.60
56495;PMS5003;42804;55.762;38.084;2024-01-10T07:18:42;5.00;3.60;2.20
56495;PMS5003;42804;55.762;38.084;2024-01-10T07:21:12;9.00;7.20;3.80
56495;PMS5003;42804;55.762;38.084;2024-01-10T07:23:40;8.40;3.20;1.00
56495;PMS5003;42804;55.762;38.084;2024-01-10T07:26:12;8.60;6.20;3.40
56495;PMS5003;42804;55.762;38.084;2024-01-10T07:28:42;3.80;3.60;1.00
56495;PMS5003;42804;55.762;38.084;2024-01-10T07:31:11;5.20;4.80;1.80
56495;PMS5003;42804;55.762;38.084;2024-01-10T07:33:39;1.00;1.00;0.00
56495;PMS5003;42804;55.762;38.084;2024-01-10T07:36:08;6.40;4.00;1.40
56495;PMS5003;42804;55.762;38.084;2024-01-10T07:38:37;7.40;6.60;3.00
56495;PMS5003;42804;55.762;38.084;2024-01-10T07:41:05;4.50;3.50;1.00
56495;PMS5003;42804;55.762;38.084;2024-01-10T07:43:33;3.60;3.60;1.00
56495;PMS5003;42804;55.762;38.084;2024-01-10T07:46:04;2.20;2.20;0.20
56495;PMS5003;42804;55.762;38.084;2024-01-10T07:48:33;4.80;4.00;3.00
56495;PMS5003;42804;55.762;38.084;2024-01-10T07:51:03;3.80;3.20;0.80
56495;PMS5003;42804;55.762;38.084;2024-01-10T07:53:33;6.40;4.80;2.60
56495;PMS5003;42804;55.762;38.084;2024-01-10T07:56:03;6.00;3.40;1.00
56495;PMS5003;42804;55.762;38.084;2024-01-10T07:58:32;3.00;3.00;1.00
56495;PMS5003;42804;55.762;38.084;2024-01-10T08:01:00;2.20;1.80;0.60
56495;PMS5003;42804;55.762;38.084;2024-01-10T08:03:31;4.60;3.00;2.60
56495;PMS5003;42804;55.762;38.084;2024-01-10T08:06:00;0.00;0.00;0.00
56495;PMS5003;42804;55.762;38.084;2024-01-10T08:08:29;1.80;1.00;0.00
56495;PMS5003;42804;55.762;38.084;2024-01-10T08:10:57;6.20;3.40;0.40
56495;PMS5003;42804;55.762;38.084;2024-01-10T08:13:26;6.00;4.00;3.00
56495;PMS5003;42804;55.762;38.084;2024-01-10T08:15:55;5.80;5.00;2.60
56495;PMS5003;42804;55.762;38.084;2024-01-10T08:18:24;2.20;2.20;0.40
56495;PMS5003;42804;55.762;38.084;2024-01-10T08:20:54;4.80;3.80;1.00
56495;PMS5003;42804;55.762;38.084;2024-01-10T08:23:27;3.00;1.00;0.40
56495;PMS5003;42804;55.762;38.084;2024-01-10T08:26:12;6.20;2.60;1.00
56495;PMS5003;42804;55.762;38.084;2024-01-10T08:28:41;2.60;0.80;0.00
56495;PMS5003;42804;55.762;38.084;2024-01-10T08:31:12;6.00;3.00;0.80
56495;PMS5003;42804;55.762;38.084;2024-01-10T08:33:44;3.80;1.80;0.40
56495;PMS5003;42804;55.762;38.084;2024-01-10T08:36:15;2.60;2.60;0.80
56495;PMS5003;42804;55.762;38.084;2024-01-10T08:38:44;5.20;4.00;1.00
56495;PMS5003;42804;55.762;38.084;2024-01-10T08:41:16;5.20;3.80;3.00
56495;PMS5003;42804;55.762;38.084;2024-01-10T08:43:47;3.60;3.60;1.00
56495;PMS5003;42804;55.762;38.084;2024-01-10T08:46:15;4.00;3.20;1.40
56495;PMS5003;42804;55.762;38.084;2024-01-10T08:48:45;4.80;3.40;1.00
56495;PMS5003;42804;55.762;38.084;2024-01-10T08:51:16;5.20;3.00;2.20
56495;PMS5003;42804;55.762;38.084;2024-01-10T08:53:44;3.60;3.60;1.00
56495;PMS5003;42804;55.762;38.084;2024-01-10T08:56:12;3.20;1.40;1.00
56495;PMS5003;42804;55.762;38.084;2024-01-10T08:58:43;4.40;4.00;3.00
56495;PMS5003;42804;55.762;38.084;2024-01-10T09:01:11;0.40;0.40;0.00
56495;PMS5003;42804;55.762;38.084;2024-01-10T09:03:40;1.40;1.40;0.20
56495;PMS5003;42804;55.762;38.084;2024-01-10T09:06:08;7.40;5.60;1.40
56495;PMS5003;42804;55.762;38.084;2024-01-10T09:08:40;7.00;1.00;0.80
56495;PMS5003;42804;55.762;38.084;2024-01-10T09:11:08;3.60;3.60;1.00
56495;PMS5003;42804;55.762;38.084;2024-01-10T09:13:37;3.20;3.20;1.00
56495;PMS5003;42804;55.762;38.084;2024-01-10T09:16:07;7.00;5.60;1.80
56495;PMS5003;42804;55.762;38.084;2024-01-10T09:18:36;2.40;2.40;0.20
56495;PMS5003;42804;55.762;38.084;2024-01-10T09:21:07;11.40;6.00;3.20
56495;PMS5003;42804;55.762;38.084;2024-01-10T09:23:35;9.00;4.00;1.00
56495;PMS5003;42804;55.762;38.084;2024-01-10T09:26:05;0.80;0.20;0.00
56495;PMS5003;42804;55.762;38.084;2024-01-10T09:28:35;3.20;3.00;2.60
56495;PMS5003;42804;55.762;38.084;2024-01-10T09:31:04;3.80;3.80;1.00
56495;PMS5003;42804;55.762;38.084;2024-01-10T09:33:34;5.60;4.00;0.80
56495;PMS5003;42804;55.762;38.084;2024-01-10T09:36:03;8.80;7.60;3.00
56495;PMS5003;42804;55.762;38.084;2024-01-10T09:38:34;6.00;4.40;1.40
56495;PMS5003;42804;55.762;38.084;2024-01-10T09:41:03;3.00;3.00;1.00
56495;PMS5003;42804;55.762;38.084;2024-01-10T09:43:33;4.20;3.00;2.20
56495;PMS5003;42804;55.762;38.084;2024-01-10T09:46:02;5.60;3.00;1.40
56495;PMS5003;42804;55.762;38.084;2024-01-10T09:48:31;9.60;7.00;3.00
56495;PMS5003;42804;55.762;38.084;2024-01-10T09:51:00;7.40;6.60;3.00
56495;PMS5003;42804;55.762;38.084;2024-01-10T09:53:28;3.40;3.40;0.40
56495;PMS5003;42804;55.762;38.084;2024-01-10T09:55:59;3.00;1.00;0.00
56495;PMS5003;42804;55.762;38.084;2024-01-10T09:58:28;4.80;4.00;1.00
56495;PMS5003;42804;55.762;38.084;2024-01-10T10:00:58;7.00;4.80;3.00
56495;PMS5003;42804;55.762;38.084;2024-01-10T10:03:31;10.80;5.60;1.00
56495;PMS5003;42804;55.762;38.084;2024-01-10T10:06:02;9.60;5.00;1.40
56495;PMS5003;42804;55.762;38.084;2024-01-10T10:08:31;6.00;6.00;3.40
56495;PMS5003;42804;55.762;38.084;2024-01-10T10:10:59;7.80;6.60;3.00
56495;PMS5003;42804;55.762;38.084;2024-01-10T10:13:28;7.60;5.20;2.60
56495;PMS5003;42804;55.762;38.084;2024-01-10T10:15:59;6.00;5.20;1.80
56495;PMS5003;42804;55.762;38.084;2024-01-10T10:18:28;4.40;3.60;1.00
56495;PMS5003;42804;55.762;38.084;2024-01-10T10:21:06;3.40;1.00;1.00
56495;PMS5003;42804;55.762;38.084;2024-01-10T10:23:36;3.40;3.40;1.00
56495;PMS5003;42804;55.762;38.084;2024-01-10T10:26:10;2.20;2.20;1.00
56495;PMS5003;42804;55.762;38.084;2024-01-10T10:28:40;2.20;2.20;0.80
56495;PMS5003;42804;55.762;38.084;2024-01-10T10:31:11;2.20;1.00;0.60
56495;PMS5003;42804;55.762;38.084;2024-01-10T10:33:39;4.40;3.80;3.00
56495;PMS5003;42804;55.762;38.084;2024-01-10T10:36:09;6.20;4.00;1.00
56495;PMS5003;42804;55.762;38.084;2024-01-10T10:38:38;5.80;5.20;3.00
56495;PMS5003;42804;55.762;38.084;2024-01-10T10:41:07;9.60;8.20;3.80
56495;PMS5003;42804;55.762;38.084;2024-01-10T10:43:39;14.60;10.40;5.60
56495;PMS5003;42804;55.762;38.084;2024-01-10T10:46:08;10.80;6.80;3.00
56495;PMS5003;42804;55.762;38.084;2024-01-10T10:48:40;9.20;7.40;3.60
56495;PMS5003;42804;55.762;38.084;2024-01-10T10:51:11;12.80;9.00;4.00
56495;PMS5003;42804;55.762;38.084;2024-01-10T10:53:40;10.00;8.80;3.60
56495;PMS5003;42804;55.762;38.084;2024-01-10T10:56:12;4.80;4.00;2.20
56495;PMS5003;42804;55.762;38.084;2024-01-10T10:58:41;4.40;0.60;0.00
56495;PMS5003;42804;55.762;38.084;2024-01-10T11:01:11;3.00;1.40;0.40
56495;PMS5003;42804;55.762;38.084;2024-01-10T11:03:42;5.20;3.80;3.00
56495;PMS5003;42804;55.762;38.084;2024-01-10T11:06:11;6.00;5.20;3.00
56495;PMS5003;42804;55.762;38.084;2024-01-10T11:08:42;4.20;4.00;1.00
56495;PMS5003;42804;55.762;38.084;2024-01-10T11:11:16;7.80;6.00;3.20
56495;PMS5003;42804;55.762;38.084;2024-01-10T11:13:56;3.80;2.80;0.60
56495;PMS5003;42804;55.762;38.084;2024-01-10T11:16:44;3.80;3.00;1.00
56495;PMS5003;42804;55.762;38.084;2024-01-10T11:19:30;3.80;3.20;1.00
56495;PMS5003;42804;55.762;38.084;2024-01-10T11:22:09;5.80;5.60;3.00
56495;PMS5003;42804;55.762;38.084;2024-01-10T11:24:42;8.60;5.20;3.00
56495;PMS5003;42804;55.762;38.084;2024-01-10T11:27:11;8.80;6.40;3.00
56495;PMS5003;42804;55.762;38.084;2024-01-10T11:29:40;7.00;4.00;1.00
56495;PMS5003;42804;55.762;38.084;2024-01-10T11:32:12;9.20;6.60;3.20
56495;PMS5003;42804;55.762;38.084;2024-01-10T11:34:51;8.20;6.00;4.00
56495;PMS5003;42804;55.762;38.084;2024-01-10T11:37:23;3.60;3.40;3.00
56495;PMS5003;42804;55.762;38.084;2024-01-10T11:39:52;9.80;9.40;5.60
56495;PMS5003;42804;55.762;38.084;2024-01-10T11:42:22;5.60;4.40;3.00
56495;PMS5003;42804;55.762;38.084;2024-01-10T11:44:52;11.20;7.20;3.80
56495;PMS5003;42804;55.762;38.084;2024-01-10T11:47:20;9.20;6.20;4.00
56495;PMS5003;42804;55.762;38.084;2024-01-10T11:49:55;8.20;5.60;3.00
56495;PMS5003;42804;55.762;38.084;2024-01-10T11:52:31;9.00;6.00;3.00
56495;PMS5003;42804;55.762;38.084;2024-01-10T11:55:00;8.00;5.20;3.00
56495;PMS5003;42804;55.762;38.084;2024-01-10T11:57:30;10.80;7.40;5.20
56495;PMS5003;42804;55.762;38.084;2024-01-10T11:59:59;11.60;8.60;4.00
56495;PMS5003;42804;55.762;38.084;2024-01-10T12:02:32;4.80;3.20;0.00
56495;PMS5003;42804;55.762;38.084;2024-01-10T12:05:03;6.40;5.60;1.40
56495;PMS5003;42804;55.762;38.084;2024-01-10T12:07:32;5.60;5.60;4.00
56495;PMS5003;42804;55.762;38.084;2024-01-10T12:10:01;7.00;6.00;3.40
56495;PMS5003;42804;55.762;38.084;2024-01-10T12:12:30;9.80;8.80;6.00
56495;PMS5003;42804;55.762;38.084;2024-01-10T12:14:59;10.40;9.20;6.00
56495;PMS5003;42804;55.762;38.084;2024-01-10T12:17:30;15.80;11.60;6.40
56495;PMS5003;42804;55.762;38.084;2024-01-10T12:19:59;10.80;10.60;6.40
56495;PMS5003;42804;55.762;38.084;2024-01-10T12:22:32;9.20;7.00;4.00
56495;PMS5003;42804;55.762;38.084;2024-01-10T12:25:03;12.20;9.20;6.20
56495;PMS5003;42804;55.762;38.084;2024-01-10T12:27:32;10.60;9.00;4.00
56495;PMS5003;42804;55.762;38.084;2024-01-10T12:30:00;15.60;11.80;6.80
56495;PMS5003;42804;55.762;38.084;2024-01-10T12:32:32;13.20;10.40;6.20
56495;PMS5003;42804;55.762;38.084;2024-01-10T12:35:01;14.60;9.60;5.60
56495;PMS5003;42804;55.762;38.084;2024-01-10T12:37:31;12.60;11.20;6.20
56495;PMS5003;42804;55.762;38.084;2024-01-10T12:40:01;9.60;9.00;5.20
56495;PMS5003;42804;55.762;38.084;2024-01-10T12:42:38;5.20;3.60;2.20
56495;PMS5003;42804;55.762;38.084;2024-01-10T12:45:19;12.00;10.60;6.20
56495;PMS5003;42804;55.762;38.084;2024-01-10T12:47:52;13.20;8.60;3.40
56495;PMS5003;42804;55.762;38.084;2024-01-10T12:50:30;9.60;6.80;3.00
56495;PMS5003;42804;55.762;38.084;2024-01-10T12:52:59;4.00;3.00;0.00
56495;PMS5003;42804;55.762;38.084;2024-01-10T12:55:30;10.00;8.20;3.80
56495;PMS5003;42804;55.762;38.084;2024-01-10T12:57:58;12.80;10.40;5.60
56495;PMS5003;42804;55.762;38.084;2024-01-10T13:00:33;7.40;6.00;4.00
56495;PMS5003;42804;55.762;38.084;2024-01-10T13:03:03;14.60;10.40;7.40
56495;PMS5003;42804;55.762;38.084;2024-01-10T13:05:34;9.40;8.60;4.80
56495;PMS5003;42804;55.762;38.084;2024-01-10T13:08:03;13.00;11.60;8.60
56495;PMS5003;42804;55.762;38.084;2024-01-10T13:10:34;8.00;5.20;3.00
56495;PMS5003;42804;55.762;38.084;2024-01-10T13:13:02;7.80;6.60;3.40
56495;PMS5003;42804;55.762;38.084;2024-01-10T13:15:31;12.40;9.80;6.00
56495;PMS5003;42804;55.762;38.084;2024-01-10T13:17:59;14.00;11.60;6.00
56495;PMS5003;42804;55.762;38.084;2024-01-10T13:20:28;13.60;11.20;5.60
56495;PMS5003;42804;55.762;38.084;2024-01-10T13:22:56;12.60;10.80;6.00
56495;PMS5003;42804;55.762;38.084;2024-01-10T13:25:25;13.80;12.80;7.40
56495;PMS5003;42804;55.762;38.084;2024-01-10T13:27:55;14.20;10.80;7.40
56495;PMS5003;42804;55.762;38.084;2024-01-10T13:30:24;13.60;12.60;6.20
56495;PMS5003;42804;55.762;38.084;2024-01-10T13:32:53;13.40;12.00;6.80
56495;PMS5003;42804;55.762;38.084;2024-01-10T13:35:22;7.40;6.20;4.00
56495;PMS5003;42804;55.762;38.084;2024-01-10T13:37:51;12.00;10.40;8.20
56495;PMS5003;42804;55.762;38.084;2024-01-10T13:40:19;10.00;8.40;3.80
56495;PMS5003;42804;55.762;38.084;2024-01-10T13:42:52;18.00;15.00;7.00
56495;PMS5003;42804;55.762;38.084;2024-01-10T13:45:23;10.80;9.60;8.20
56495;PMS5003;42804;55.762;38.084;2024-01-10T13:47:52;11.60;9.80;6.40
56495;PMS5003;42804;55.762;38.084;2024-01-10T13:50:22;20.80;15.80;9.00
56495;PMS5003;42804;55.762;38.084;2024-01-10T13:52:52;16.80;11.40;6.80
56495;PMS5003;42804;55.762;38.084;2024-01-10T13:55:21;28.60;23.60;16.00
56495;PMS5003;42804;55.762;38.084;2024-01-10T13:57:50;15.20;13.60;6.80
56495;PMS5003;42804;55.762;38.084;2024-01-10T14:00:19;9.60;7.00;0.60
56495;PMS5003;42804;55.762;38.084;2024-01-10T14:02:51;13.80;12.00;6.20
56495;PMS5003;42804;55.762;38.084;2024-01-10T14:05:22;20.40;19.80;12.60
56495;PMS5003;42804;55.762;38.084;2024-01-10T14:07:52;23.60;19.00;12.40
56495;PMS5003;42804;55.762;38.084;2024-01-10T14:10:21;21.20;18.00;13.00
56495;PMS5003;42804;55.762;38.084;2024-01-10T14:12:50;28.00;21.00;13.40
56495;PMS5003;42804;55.762;38.084;2024-01-10T14:15:19;16.20;11.40;8.80
56495;PMS5003;42804;55.762;38.084;2024-01-10T14:17:48;29.80;25.20;15.80